Curacavi, Chile
Current Conditions -  °F | °C
As of 2:00 AM on Saturday 25 Oct 2014 (Local Time) from SCEL Reporting Station
Clear Clear  
Wind Chill: 63°   Ceiling: Unl
Heat Index: 63°   Visibility: 6mi
Dew Point: 45°   Wind: 3mph
Humidity: 52%   Direction: 320°NW
Pressure: 29.88"   Gusts: NA
Location:  33.2°S, 71.12°W
Report Text: SCEL 250600Z 32003KT CAVOK 17/07 Q1012 NOSIG
Loading
Personal Weather Stations






























Interactive Weather Map
Tropical Storm Tracking
New forecast layout! Learn more

10-Day Weather Forecast

Advertisements
Track Severe Weather on mobile